createdAt,value
2023-01-23T00:00:30.263Z,103177.44
2023-01-23T00:02:56.873Z,103175.59
2023-01-23T00:05:23.259Z,103178.22
2023-01-23T00:07:49.626Z,103171.19
2023-01-23T00:10:17.785Z,103173.91
2023-01-23T00:12:44.626Z,103177.41
2023-01-23T00:15:11.281Z,103179.00
2023-01-23T00:17:37.785Z,103177.41
2023-01-23T00:20:04.426Z,103176.72
2023-01-23T00:22:30.806Z,103164.50
2023-01-23T00:24:57.109Z,103167.06
2023-01-23T00:27:24.748Z,103170.69
2023-01-23T00:29:52.086Z,103160.22
2023-01-23T00:32:18.416Z,103166.34
2023-01-23T00:34:46.278Z,103171.56
2023-01-23T00:37:13.094Z,103171.53
2023-01-23T00:39:39.814Z,103169.81
2023-01-23T00:42:06.177Z,103177.63
2023-01-23T00:44:33.851Z,103175.84
2023-01-23T00:47:00.429Z,103182.56
2023-01-23T00:49:26.898Z,103187.84
2023-01-23T00:51:53.231Z,103184.94
2023-01-23T00:54:19.767Z,103196.44
2023-01-23T00:56:46.052Z,103193.75
2023-01-23T00:59:12.405Z,103191.28
2023-01-23T01:01:40.270Z,103199.09
2023-01-23T01:04:06.723Z,103205.31
2023-01-23T01:06:33.016Z,103204.16
2023-01-23T01:08:59.505Z,103196.31
2023-01-23T01:11:25.956Z,103202.31
2023-01-23T01:13:52.578Z,103204.31
2023-01-23T01:16:19.008Z,103206.94
2023-01-23T01:18:46.675Z,103205.28
2023-01-23T01:21:17.326Z,103199.25
2023-01-23T01:23:43.651Z,103207.94
2023-01-23T01:26:10.428Z,103206.84
2023-01-23T01:28:37.668Z,103203.47
2023-01-23T01:31:05.352Z,103200.03
2023-01-23T01:33:31.730Z,103200.09
2023-01-23T01:35:59.379Z,103197.63
2023-01-23T01:38:25.705Z,103198.53
2023-01-23T01:40:52.115Z,103201.16
2023-01-23T01:43:20.238Z,103202.00
2023-01-23T01:46:08.267Z,103202.00
2023-01-23T01:48:36.629Z,103201.00
2023-01-23T01:51:09.359Z,103199.16
2023-01-23T01:53:37.395Z,103200.94
2023-01-23T01:56:03.984Z,103203.59
2023-01-23T01:58:30.632Z,103203.63
2023-01-23T02:00:57.117Z,103204.44
2023-01-23T02:03:24.170Z,103196.63
2023-01-23T02:05:50.577Z,103200.13
2023-01-23T02:08:21.351Z,103196.63
2023-01-23T02:10:47.775Z,103206.19
2023-01-23T02:13:24.913Z,103209.53
2023-01-23T02:15:51.886Z,103207.00
2023-01-23T02:18:18.408Z,103199.00
2023-01-23T02:20:44.884Z,103199.94
2023-01-23T02:23:17.282Z,103203.34
2023-01-23T02:25:51.464Z,103199.78
2023-01-23T02:28:17.790Z,103200.50
2023-01-23T02:30:44.724Z,103198.66
2023-01-23T02:33:11.597Z,103201.16
2023-01-23T02:35:39.012Z,103195.34
2023-01-23T02:38:05.924Z,103196.38
2023-01-23T02:40:32.748Z,103193.66
2023-01-23T02:43:00.484Z,103197.09
2023-01-23T02:45:26.841Z,103200.41
2023-01-23T02:47:53.184Z,103196.84
2023-01-23T02:50:19.640Z,103200.41
2023-01-23T02:52:46.141Z,103200.66
2023-01-23T02:55:12.463Z,103200.66
2023-01-23T02:57:38.896Z,103209.44
2023-01-23T03:00:07.424Z,103206.06
2023-01-23T03:02:33.758Z,103200.00
2023-01-23T03:05:00.127Z,103211.38
2023-01-23T03:07:26.455Z,103203.44
2023-01-23T03:09:52.782Z,103203.44
2023-01-23T03:12:19.085Z,103208.50
2023-01-23T03:14:45.416Z,103205.84
2023-01-23T03:17:13.073Z,103214.66
2023-01-23T03:19:39.372Z,103201.47
2023-01-23T03:22:05.709Z,103206.78
2023-01-23T03:24:33.602Z,103206.06
2023-01-23T03:27:00.139Z,103195.59
2023-01-23T03:29:26.687Z,103191.25
2023-01-23T03:31:53.047Z,103198.25
2023-01-23T03:34:20.759Z,103202.56
2023-01-23T03:36:47.067Z,103193.88
2023-01-23T03:39:15.291Z,103188.69
2023-01-23T03:41:41.828Z,103190.38
2023-01-23T03:44:08.221Z,103200.91
2023-01-23T03:46:34.528Z,103197.34
2023-01-23T03:49:00.817Z,103196.31
2023-01-23T03:51:28.447Z,103197.22
2023-01-23T03:53:54.750Z,103197.13
2023-01-23T03:56:21.057Z,103194.50
2023-01-23T03:58:47.371Z,103198.09
2023-01-23T04:01:13.714Z,103201.47
2023-01-23T04:03:40.047Z,103205.84
2023-01-23T04:06:06.356Z,103201.59
2023-01-23T04:08:34.067Z,103211.09
2023-01-23T04:11:00.948Z,103212.03
2023-01-23T04:13:27.251Z,103213.75
2023-01-23T04:15:53.561Z,103218.91
2023-01-23T04:18:19.853Z,103218.84
2023-01-23T04:20:46.177Z,103212.69
2023-01-23T04:23:12.497Z,103216.31
2023-01-23T04:25:40.367Z,103215.44
2023-01-23T04:28:06.733Z,103218.03
2023-01-23T04:30:33.141Z,103219.81
2023-01-23T04:32:59.605Z,103215.41
2023-01-23T04:35:25.919Z,103218.91
2023-01-23T04:37:52.220Z,103215.44
2023-01-23T04:40:18.887Z,103218.09
2023-01-23T04:42:46.749Z,103222.41
2023-01-23T04:45:13.076Z,103230.13
2023-01-23T04:47:39.476Z,103229.31
2023-01-23T04:50:06.045Z,103230.88
2023-01-23T04:52:32.355Z,103221.41
2023-01-23T04:54:58.778Z,103222.28
2023-01-23T04:57:25.068Z,103228.34
2023-01-23T04:59:52.747Z,103225.84
2023-01-23T05:02:19.119Z,103227.63
2023-01-23T05:04:45.560Z,103213.69
2023-01-23T05:07:12.291Z,103227.66
2023-01-23T05:09:38.676Z,103228.56
2023-01-23T05:12:05.315Z,103229.41
2023-01-23T05:14:31.760Z,103238.16
2023-01-23T05:16:59.428Z,103237.28
2023-01-23T05:19:25.724Z,103241.66
2023-01-23T05:21:52.048Z,103240.69
2023-01-23T05:24:18.407Z,103238.16
2023-01-23T05:26:44.798Z,103236.44
2023-01-23T05:29:11.139Z,103237.25
2023-01-23T05:31:37.576Z,103249.31
2023-01-23T05:34:05.298Z,103249.44
2023-01-23T05:36:31.640Z,103257.13
2023-01-23T05:38:58.006Z,103252.94
2023-01-23T05:41:25.719Z,103255.44
2023-01-23T05:43:52.125Z,103248.50
2023-01-23T05:46:18.472Z,103245.06
2023-01-23T05:48:47.847Z,103245.94
2023-01-23T05:51:15.579Z,103253.91
2023-01-23T05:53:41.904Z,103256.47
2023-01-23T05:56:08.522Z,103253.81
2023-01-23T05:58:34.843Z,103258.28
2023-01-23T06:01:01.944Z,103260.81
2023-01-23T06:03:28.521Z,103245.97
2023-01-23T06:05:54.860Z,103258.94
2023-01-23T06:08:22.545Z,103259.81
2023-01-23T06:10:48.837Z,103254.59
2023-01-23T06:13:15.143Z,103264.97
2023-01-23T06:15:42.059Z,103274.50
2023-01-23T06:18:08.433Z,103266.56
2023-01-23T06:20:34.768Z,103266.66
2023-01-23T06:23:01.072Z,103270.13
2023-01-23T06:25:28.761Z,103270.09
2023-01-23T06:27:55.199Z,103271.00
2023-01-23T06:30:22.100Z,103279.75
2023-01-23T06:32:48.627Z,103282.41
2023-01-23T06:35:14.990Z,103277.88
2023-01-23T06:37:41.554Z,103276.94
2023-01-23T06:40:08.557Z,103283.91
2023-01-23T06:42:36.200Z,103290.88
2023-01-23T06:45:02.619Z,103287.41
2023-01-23T06:47:28.907Z,103289.09
2023-01-23T06:49:55.206Z,103296.13
2023-01-23T06:52:21.497Z,103303.06
2023-01-23T06:54:47.789Z,103303.13
2023-01-23T06:57:14.105Z,103303.16
2023-01-23T06:59:41.728Z,103306.56
2023-01-23T07:02:08.569Z,103300.53
2023-01-23T07:04:34.924Z,103301.38
2023-01-23T07:07:01.296Z,103311.03
2023-01-23T07:09:27.641Z,103314.50
2023-01-23T07:11:54.000Z,103318.00
2023-01-23T07:14:20.298Z,103320.66
2023-01-23T07:16:48.116Z,103320.66
2023-01-23T07:19:14.466Z,103318.06
2023-01-23T07:21:40.760Z,103324.16
2023-01-23T07:24:07.156Z,103323.34
2023-01-23T07:26:33.441Z,103320.66
2023-01-23T07:28:59.770Z,103324.94
2023-01-23T07:31:26.122Z,103323.22
2023-01-23T07:33:53.778Z,103331.06
2023-01-23T07:36:20.112Z,103331.03
2023-01-23T07:38:46.421Z,103331.09
2023-01-23T07:41:12.747Z,103335.44
2023-01-23T07:43:39.043Z,103338.81
2023-01-23T07:46:05.524Z,103349.22
2023-01-23T07:48:31.979Z,103350.19
2023-01-23T07:51:02.790Z,103350.22
2023-01-23T07:53:29.154Z,103351.06
2023-01-23T07:55:55.467Z,103351.84
2023-01-23T07:58:21.780Z,103359.78
2023-01-23T08:00:48.106Z,103350.97
2023-01-23T08:03:14.512Z,103351.84
2023-01-23T08:05:42.913Z,103352.69
2023-01-23T08:08:13.721Z,103353.56
2023-01-23T08:10:40.286Z,103350.91
2023-01-23T08:13:06.595Z,103348.28
2023-01-23T08:15:32.954Z,103353.47
2023-01-23T08:17:59.310Z,103352.66
2023-01-23T08:20:25.785Z,103363.09
2023-01-23T08:22:52.073Z,103356.97
2023-01-23T08:25:19.729Z,103354.31
2023-01-23T08:27:46.056Z,103359.50
2023-01-23T08:30:12.597Z,103358.53
2023-01-23T08:32:38.937Z,103362.00
2023-01-23T08:35:05.812Z,103358.44
2023-01-23T08:37:32.105Z,103368.09
2023-01-23T08:39:58.424Z,103366.34
2023-01-23T08:42:26.075Z,103363.72
2023-01-23T08:44:52.452Z,103369.75
2023-01-23T08:47:18.788Z,103361.00
2023-01-23T08:49:45.110Z,103361.03
2023-01-23T08:52:11.415Z,103366.94
2023-01-23T08:54:37.781Z,103371.28
2023-01-23T08:57:04.098Z,103377.28
2023-01-23T08:59:31.795Z,103378.16
2023-01-23T09:01:58.530Z,103381.47
2023-01-23T09:04:24.934Z,103374.50
2023-01-23T09:06:51.250Z,103376.13
2023-01-23T09:09:17.610Z,103374.31
2023-01-23T09:11:43.925Z,103384.72
2023-01-23T09:14:10.218Z,103396.03
2023-01-23T09:16:37.883Z,103390.72
2023-01-23T09:19:04.232Z,103379.22
2023-01-23T09:21:30.573Z,103388.00
2023-01-23T09:23:56.963Z,103388.75
2023-01-23T09:26:23.248Z,103391.34
2023-01-23T09:28:49.556Z,103390.44
2023-01-23T09:31:15.885Z,103393.88
2023-01-23T09:33:43.606Z,103396.53
2023-01-23T09:36:10.097Z,103392.16
2023-01-23T09:38:36.428Z,103394.59
2023-01-23T09:41:07.813Z,103398.91
2023-01-23T09:43:38.016Z,103401.47
2023-01-23T09:46:07.802Z,103397.94
2023-01-23T09:48:39.620Z,103392.69
2023-01-23T09:51:11.874Z,103395.31
2023-01-23T09:53:39.453Z,103389.13
2023-01-23T09:56:12.360Z,103384.72
2023-01-23T09:58:42.104Z,103388.19
2023-01-23T10:01:10.103Z,103392.44
2023-01-23T10:03:37.086Z,103395.84
2023-01-23T10:06:12.179Z,103394.22
2023-01-23T10:08:42.763Z,103396.78
2023-01-23T10:11:13.455Z,103395.84
2023-01-23T10:13:47.522Z,103398.44
2023-01-23T10:16:33.251Z,103393.03
2023-01-23T10:19:14.885Z,103399.91
2023-01-23T10:21:47.187Z,103403.34
2023-01-23T10:24:23.928Z,103402.44
2023-01-23T10:26:50.544Z,103410.16
2023-01-23T10:29:21.941Z,103402.28
2023-01-23T10:31:50.053Z,103404.91
2023-01-23T10:34:18.340Z,103403.16
2023-01-23T10:36:54.797Z,103404.00
2023-01-23T10:39:25.063Z,103411.81
2023-01-23T10:41:57.492Z,103409.19
2023-01-23T10:44:23.925Z,103409.13
2023-01-23T10:46:52.217Z,103403.91
2023-01-23T10:49:29.463Z,103406.53
2023-01-23T10:51:57.361Z,103415.25
2023-01-23T10:54:31.917Z,103410.06
2023-01-23T10:56:59.721Z,103407.44
2023-01-23T10:59:29.093Z,103409.03
2023-01-23T11:02:00.265Z,103405.50
2023-01-23T11:04:27.368Z,103398.47
2023-01-23T11:07:02.089Z,103399.19
2023-01-23T11:09:28.429Z,103394.72
2023-01-23T11:12:01.714Z,103397.41
2023-01-23T11:14:28.288Z,103392.94
2023-01-23T11:17:02.256Z,103389.47
2023-01-23T11:19:30.657Z,103393.84
2023-01-23T11:21:58.076Z,103393.88
2023-01-23T11:24:39.271Z,103401.78
2023-01-23T11:27:16.985Z,103400.06
2023-01-23T11:29:52.965Z,103401.81
2023-01-23T11:32:20.648Z,103403.59
2023-01-23T11:34:49.395Z,103402.06
2023-01-23T11:37:18.928Z,103403.91
2023-01-23T11:39:50.701Z,103395.94
2023-01-23T11:42:17.051Z,103400.28
2023-01-23T11:44:46.336Z,103400.25
2023-01-23T11:47:22.829Z,103408.16
2023-01-23T11:50:02.776Z,103417.69
2023-01-23T11:52:38.175Z,103415.19
2023-01-23T11:55:16.852Z,103414.38
2023-01-23T11:57:50.352Z,103409.94
2023-01-23T12:00:23.145Z,103402.88
2023-01-23T12:02:57.224Z,103407.19
2023-01-23T12:05:27.184Z,103404.56
2023-01-23T12:08:00.363Z,103402.84
2023-01-23T12:10:31.207Z,103403.72
2023-01-23T12:13:07.152Z,103415.09
2023-01-23T12:15:37.972Z,103416.06
2023-01-23T12:18:11.360Z,103417.69
2023-01-23T12:20:42.830Z,103416.88
2023-01-23T12:23:21.524Z,103412.56
2023-01-23T12:25:54.012Z,103412.47
2023-01-23T12:28:28.530Z,103419.34
2023-01-23T12:31:10.570Z,103408.84
2023-01-23T12:33:45.699Z,103408.97
2023-01-23T12:36:19.307Z,103400.25
2023-01-23T12:38:50.292Z,103399.34
2023-01-23T12:41:22.108Z,103400.97
2023-01-23T12:43:54.186Z,103396.63
2023-01-23T12:46:23.924Z,103389.53
2023-01-23T12:48:54.030Z,103389.53
2023-01-23T12:51:22.071Z,103392.22
2023-01-23T12:53:50.709Z,103385.94
2023-01-23T12:56:20.918Z,103385.00
2023-01-23T12:58:50.450Z,103382.69
2023-01-23T13:01:24.162Z,103383.41
2023-01-23T13:04:02.245Z,103383.28
2023-01-23T13:06:35.144Z,103388.56
2023-01-23T13:09:16.704Z,103375.44
2023-01-23T13:11:50.457Z,103384.16
2023-01-23T13:14:17.710Z,103367.53
2023-01-23T13:16:46.153Z,103365.72
2023-01-23T13:19:21.097Z,103362.94
2023-01-23T13:22:03.004Z,103370.00
2023-01-23T13:24:39.487Z,103375.09
2023-01-23T13:27:20.739Z,103380.34
2023-01-23T13:29:49.776Z,103376.88
2023-01-23T13:32:21.255Z,103388.25
2023-01-23T13:34:47.642Z,103396.09
2023-01-23T13:37:47.158Z,103396.09
2023-01-23T13:40:14.820Z,103399.63
2023-01-23T13:42:41.192Z,103397.97
2023-01-23T13:45:30.682Z,103392.72
2023-01-23T14:21:41.371Z,103417.44
2023-01-23T14:24:19.848Z,103416.63
2023-01-23T14:26:49.592Z,103419.16
2023-01-23T14:29:19.910Z,103414.69
2023-01-23T14:31:46.350Z,103415.81
2023-01-23T14:34:17.996Z,103426.56
2023-01-23T14:36:46.159Z,103428.25
2023-01-23T14:39:16.346Z,103428.31
2023-01-23T14:41:43.776Z,103429.25
2023-01-23T14:44:17.372Z,103424.88
2023-01-23T14:46:43.820Z,103423.97
2023-01-23T14:49:10.937Z,103426.50
2023-01-23T14:51:38.655Z,103424.72
2023-01-23T14:54:10.389Z,103428.25
2023-01-23T14:56:39.260Z,103429.19
2023-01-23T14:59:06.929Z,103423.09
2023-01-23T15:01:35.623Z,103421.41
2023-01-23T15:04:03.012Z,103422.19
2023-01-23T15:06:30.842Z,103423.06
2023-01-23T15:09:06.097Z,103405.59
2023-01-23T15:11:32.906Z,103406.44
2023-01-23T15:14:00.571Z,103400.25
2023-01-23T15:16:29.734Z,103391.56
2023-01-23T15:18:58.269Z,103381.97
2023-01-23T15:21:26.487Z,103385.50
2023-01-23T15:23:59.262Z,103372.34
2023-01-23T15:26:30.597Z,103364.44
2023-01-23T15:28:57.633Z,103363.59
2023-01-23T15:31:26.200Z,103365.31
2023-01-23T15:33:52.880Z,103361.06
2023-01-23T15:36:24.591Z,103354.06
2023-01-23T15:38:51.322Z,103358.41
2023-01-23T15:41:30.119Z,103355.91
2023-01-23T15:44:02.107Z,103356.75
2023-01-23T15:46:28.589Z,103361.06
2023-01-23T15:48:54.926Z,103364.56
2023-01-23T15:51:21.232Z,103361.06
2023-01-23T15:53:49.182Z,103367.19
2023-01-23T15:56:24.139Z,103367.19
2023-01-23T15:58:50.445Z,103367.31
2023-01-23T16:01:18.281Z,103377.84
2023-01-23T16:03:44.662Z,103390.09
2023-01-23T16:06:13.825Z,103384.81
2023-01-23T16:08:40.711Z,103384.84
2023-01-23T16:11:07.086Z,103391.88
2023-01-23T16:13:33.423Z,103394.44
2023-01-23T16:15:59.957Z,103390.09
2023-01-23T16:18:27.734Z,103397.94
2023-01-23T16:20:54.316Z,103392.72
2023-01-23T16:23:22.183Z,103397.09
2023-01-23T16:25:49.273Z,103394.41
2023-01-23T16:28:17.165Z,103398.84
2023-01-23T16:30:43.544Z,103403.22
2023-01-23T16:33:10.148Z,103404.09
2023-01-23T16:35:38.039Z,103403.28
2023-01-23T16:38:05.101Z,103408.53
2023-01-23T16:40:32.105Z,103399.75
2023-01-23T16:42:59.332Z,103402.34
2023-01-23T16:45:26.938Z,103404.13
2023-01-23T16:47:56.870Z,103400.59
2023-01-23T16:50:26.216Z,103398.88
2023-01-23T16:52:55.272Z,103404.09
2023-01-23T16:55:23.290Z,103402.28
2023-01-23T16:57:52.011Z,103399.75
2023-01-23T17:00:24.945Z,103404.09
2023-01-23T17:03:01.658Z,103402.34
2023-01-23T17:05:28.134Z,103396.19
2023-01-23T17:07:58.564Z,103393.66
2023-01-23T17:10:29.881Z,103398.91
2023-01-23T17:13:01.105Z,103387.41
2023-01-23T17:15:29.004Z,103400.41
2023-01-23T17:17:57.103Z,103404.00
2023-01-23T17:20:23.385Z,103408.31
2023-01-23T17:22:49.716Z,103410.91
2023-01-23T17:25:18.774Z,103407.53
2023-01-23T17:27:48.699Z,103403.16
2023-01-23T17:30:20.138Z,103403.19
2023-01-23T17:32:48.772Z,103400.47
2023-01-23T17:35:20.014Z,103405.81
2023-01-23T17:37:46.533Z,103413.66
2023-01-23T17:40:13.481Z,103411.03
2023-01-23T17:42:41.168Z,103417.13
2023-01-23T17:45:08.624Z,103419.66
2023-01-23T17:47:35.050Z,103413.53
2023-01-23T17:50:01.372Z,103416.22
2023-01-23T17:52:27.718Z,103424.03
2023-01-23T17:54:54.056Z,103424.03
2023-01-23T17:57:20.429Z,103419.69
2023-01-23T17:59:48.184Z,103422.38
2023-01-23T18:02:22.536Z,103425.81
2023-01-23T18:04:48.977Z,103425.84
2023-01-23T18:07:15.333Z,103432.97
2023-01-23T18:09:41.689Z,103440.75
2023-01-23T18:12:10.557Z,103449.41
2023-01-23T18:14:41.768Z,103449.44
2023-01-23T18:17:21.647Z,103444.19
2023-01-23T18:19:48.467Z,103439.91
2023-01-23T18:22:15.001Z,103447.78
2023-01-23T18:24:41.671Z,103438.13
2023-01-23T18:27:16.121Z,103440.69
2023-01-23T18:29:47.429Z,103443.47
2023-01-23T18:32:25.517Z,103446.06
2023-01-23T18:34:55.199Z,103446.06
2023-01-23T18:37:25.682Z,103448.72
2023-01-23T18:39:59.273Z,103441.72
2023-01-23T18:42:28.980Z,103452.19
2023-01-23T18:44:58.076Z,103446.13
2023-01-23T18:47:25.971Z,103441.72
2023-01-23T18:49:52.539Z,103447.84
2023-01-23T18:52:20.929Z,103452.19
2023-01-23T18:54:52.353Z,103447.09
2023-01-23T18:57:26.782Z,103460.22
2023-01-23T18:59:56.371Z,103448.78
2023-01-23T19:02:26.132Z,103449.56
2023-01-23T19:05:03.916Z,103448.69
2023-01-23T19:07:30.490Z,103456.56
2023-01-23T19:09:57.266Z,103455.69
2023-01-23T19:12:27.384Z,103456.56
2023-01-23T19:15:01.515Z,103448.72
2023-01-23T19:17:34.996Z,103457.47
2023-01-23T19:20:05.054Z,103455.69
2023-01-23T19:22:41.349Z,103460.13
2023-01-23T19:25:13.894Z,103459.91
2023-01-23T19:27:40.304Z,103461.81
2023-01-23T19:30:07.265Z,103465.31
2023-01-23T19:32:34.048Z,103458.34
2023-01-23T19:35:13.408Z,103454.81
2023-01-23T19:37:42.016Z,103466.22
2023-01-23T19:40:08.834Z,103473.25
2023-01-23T19:42:48.865Z,103468.03
2023-01-23T19:45:17.277Z,103475.91
2023-01-23T19:47:43.632Z,103475.03
2023-01-23T19:50:12.998Z,103475.88
2023-01-23T19:52:39.317Z,103473.28
2023-01-23T19:55:07.319Z,103475.81
2023-01-23T19:57:33.653Z,103474.09
2023-01-23T19:59:59.998Z,103481.91
2023-01-23T20:02:26.360Z,103476.72
2023-01-23T20:04:53.214Z,103476.59
2023-01-23T20:07:19.555Z,103484.56
2023-01-23T20:09:45.912Z,103488.94
2023-01-23T20:12:15.352Z,103477.59
2023-01-23T20:14:41.683Z,103484.72
2023-01-23T20:17:08.909Z,103477.66
2023-01-23T20:19:35.262Z,103488.19
2023-01-23T20:22:01.594Z,103490.78
2023-01-23T20:24:27.973Z,103486.38
2023-01-23T20:26:54.344Z,103487.25
2023-01-23T20:29:22.244Z,103487.34
2023-01-23T20:31:48.590Z,103482.09
2023-01-23T20:34:15.010Z,103484.72
2023-01-23T20:36:41.377Z,103484.63
2023-01-23T20:39:07.856Z,103481.16
2023-01-23T20:41:34.186Z,103475.03
2023-01-23T20:44:00.542Z,103468.06
2023-01-23T20:46:28.363Z,103470.69
2023-01-23T20:48:55.210Z,103476.75
2023-01-23T20:51:21.536Z,103485.63
2023-01-23T20:53:47.849Z,103481.41
2023-01-23T20:56:14.835Z,103482.28
2023-01-23T20:58:42.060Z,103486.59
2023-01-23T21:01:08.369Z,103486.47
2023-01-23T21:03:36.347Z,103487.34
2023-01-23T21:06:02.737Z,103487.47
2023-01-23T21:08:29.071Z,103492.69
2023-01-23T21:10:55.418Z,103494.50
2023-01-23T21:13:21.718Z,103493.63
2023-01-23T21:15:55.699Z,103489.28
2023-01-23T21:18:22.105Z,103497.16
2023-01-23T21:20:49.808Z,103504.13
2023-01-23T21:23:16.119Z,103491.84
2023-01-23T21:25:42.664Z,103498.78
2023-01-23T21:28:09.025Z,103491.00
2023-01-23T21:30:37.692Z,103485.78
2023-01-23T21:33:04.489Z,103490.09
2023-01-23T21:35:30.804Z,103487.47
2023-01-23T21:37:58.497Z,103491.00
2023-01-23T21:40:24.819Z,103487.47
2023-01-23T21:42:51.177Z,103484.84
2023-01-23T21:45:17.534Z,103483.97
2023-01-23T21:47:43.858Z,103492.91
2023-01-23T21:50:10.961Z,103484.97
2023-01-23T21:52:37.297Z,103487.59
2023-01-23T21:55:05.660Z,103484.28
2023-01-23T21:57:32.006Z,103493.69
2023-01-23T21:59:58.348Z,103495.44
2023-01-23T22:02:25.026Z,103492.00
2023-01-23T22:04:51.337Z,103496.44
2023-01-23T22:07:17.642Z,103495.50
2023-01-23T22:09:43.962Z,103490.25
2023-01-23T22:12:11.685Z,103488.50
2023-01-23T22:14:38.009Z,103484.06
2023-01-23T22:17:04.288Z,103489.28
2023-01-23T22:19:30.654Z,103482.34
2023-01-23T22:21:57.187Z,103479.69
2023-01-23T22:24:23.758Z,103482.38
2023-01-23T22:26:50.101Z,103485.19
2023-01-23T22:29:17.852Z,103484.28
2023-01-23T22:31:44.310Z,103489.50
2023-01-23T22:34:10.767Z,103498.19
2023-01-23T22:36:37.161Z,103499.03
2023-01-23T22:39:03.800Z,103498.16
2023-01-23T22:41:30.294Z,103499.06
2023-01-23T22:43:57.042Z,103507.75
2023-01-23T22:46:24.738Z,103494.63
2023-01-23T22:48:51.735Z,103501.59
2023-01-23T22:51:19.065Z,103491.97
2023-01-23T22:53:45.395Z,103498.19
2023-01-23T22:56:12.313Z,103495.50
2023-01-23T22:58:39.079Z,103491.13
2023-01-23T23:01:05.972Z,103492.88
2023-01-23T23:03:34.472Z,103487.63
2023-01-23T23:06:03.310Z,103488.50
2023-01-23T23:08:30.065Z,103491.06
2023-01-23T23:11:00.108Z,103491.94
2023-01-23T23:13:27.008Z,103495.25
2023-01-23T23:15:53.343Z,103507.56
2023-01-23T23:18:19.657Z,103503.22
2023-01-23T23:20:47.409Z,103499.63
2023-01-23T23:23:13.751Z,103505.94
2023-01-23T23:25:40.088Z,103504.19
2023-01-23T23:28:06.395Z,103503.19
2023-01-23T23:30:32.745Z,103508.47
2023-01-23T23:32:59.060Z,103501.47
2023-01-23T23:35:25.359Z,103500.50
2023-01-23T23:37:53.171Z,103505.72
2023-01-23T23:40:19.586Z,103504.00
2023-01-23T23:42:45.906Z,103501.31
2023-01-23T23:45:12.237Z,103502.34
2023-01-23T23:47:38.516Z,103500.44
2023-01-23T23:50:05.228Z,103501.28
2023-01-23T23:52:31.553Z,103499.56
2023-01-23T23:54:59.226Z,103497.00
2023-01-23T23:57:25.524Z,103492.59
2023-01-23T23:59:51.830Z,103497.09
